Time;durP1;ratioP1;P1;durP2;ratioP2;P2;SDS_P1;SDS_P2;PMS_P1;PMS_P2;Temp;Humidity;BMP_temperature;BMP_pressure;BME280_temperature;BME280_humidity;BME280_pressure;Samples;Min_cycle;Max_cycle;Signal;HPM_P1;HPM_P2
2021/11/11 00:01:38;;;;;;;10.23;5.88;;;19.50;41.90;;;;;;4896040;29;20025;-51
2021/11/11 00:04:04;;;;;;;15.73;5.80;;;19.60;41.80;;;;;;4897512;29;20068;-48
2021/11/11 00:06:29;;;;;;;10.88;6.35;;;19.50;41.80;;;;;;4897438;29;20047;-51
2021/11/11 00:08:55;;;;;;;8.70;5.65;;;19.50;41.90;;;;;;4900794;29;20061;-50
2021/11/11 00:11:20;;;;;;;12.68;6.47;;;19.50;41.80;;;;;;4901193;29;20033;-51
2021/11/11 00:13:46;;;;;;;11.65;6.55;;;19.50;41.90;;;;;;4900905;29;20060;-50
2021/11/11 00:16:11;;;;;;;10.57;6.15;;;19.50;41.80;;;;;;4900604;29;20036;-51
2021/11/11 00:18:37;;;;;;;11.32;6.72;;;19.50;41.80;;;;;;4900750;29;20477;-51
2021/11/11 00:21:05;;;;;;;13.18;6.60;;;19.50;41.70;;;;;;4900803;29;20670;-50
2021/11/11 00:23:31;;;;;;;10.48;5.90;;;19.50;41.70;;;;;;4900724;29;20025;-52
2021/11/11 00:25:56;;;;;;;10.27;6.18;;;19.50;41.60;;;;;;4900960;29;20032;-50
2021/11/11 00:28:22;;;;;;;9.77;6.05;;;19.50;41.70;;;;;;4900634;29;20025;-55
2021/11/11 00:30:47;;;;;;;11.35;6.18;;;19.50;41.60;;;;;;4900489;29;20037;-52
2021/11/11 00:33:13;;;;;;;9.75;5.55;;;19.50;41.80;;;;;;4900876;29;20025;-50
2021/11/11 00:35:39;;;;;;;10.73;6.32;;;19.50;41.50;;;;;;4900760;29;20385;-52
2021/11/11 00:38:04;;;;;;;10.68;6.78;;;19.50;41.60;;;;;;4899638;29;20025;-52
2021/11/11 00:40:31;;;;;;;11.45;6.22;;;19.50;41.60;;;;;;4900445;29;20427;-54
2021/11/11 00:43:01;;;;;;;11.18;5.97;;;19.50;41.60;;;;;;4900682;29;20080;-53
2021/11/11 00:45:27;;;;;;;10.18;5.55;;;19.50;41.50;;;;;;4900292;29;20036;-49
2021/11/11 00:47:54;;;;;;;10.40;5.90;;;19.50;41.40;;;;;;4900582;29;20033;-53
2021/11/11 00:50:22;;;;;;;10.80;5.88;;;19.50;41.50;;;;;;4900306;29;20372;-55
2021/11/11 00:52:48;;;;;;;10.40;6.00;;;19.50;41.40;;;;;;4900349;29;20448;-50
2021/11/11 00:55:14;;;;;;;10.05;5.57;;;19.50;41.50;;;;;;4900269;29;20100;-55
2021/11/11 00:57:40;;;;;;;10.48;5.90;;;19.50;41.50;;;;;;4900127;29;20095;-53
2021/11/11 01:00:08;;;;;;;12.73;6.53;;;19.50;41.40;;;;;;4899882;29;20484;-54
2021/11/11 01:02:36;;;;;;;12.52;6.72;;;19.50;41.40;;;;;;4899766;29;20060;-53
2021/11/11 01:05:01;;;;;;;10.57;6.35;;;19.50;41.50;;;;;;4900197;29;20084;-52
2021/11/11 01:07:27;;;;;;;11.88;7.03;;;19.50;41.40;;;;;;4899970;29;20025;-53
2021/11/11 01:09:53;;;;;;;12.00;6.25;;;19.40;41.50;;;;;;4899857;29;20107;-48
2021/11/11 01:12:18;;;;;;;11.93;6.68;;;19.50;41.50;;;;;;4899759;29;20029;-48
2021/11/11 01:14:44;;;;;;;10.15;6.45;;;19.50;41.30;;;;;;4899734;29;20096;-54
2021/11/11 01:17:09;;;;;;;10.70;5.40;;;19.50;41.30;;;;;;4899722;29;20084;-53
2021/11/11 01:19:35;;;;;;;10.68;6.50;;;19.40;41.20;;;;;;4899172;29;20124;-49
2021/11/11 01:22:02;;;;;;;13.32;6.88;;;19.40;41.30;;;;;;4899645;29;20025;-52
2021/11/11 01:24:27;;;;;;;11.10;6.10;;;19.40;41.30;;;;;;4899587;29;20560;-53
2021/11/11 01:26:53;;;;;;;9.95;5.88;;;19.40;41.30;;;;;;4899864;29;20116;-53
2021/11/11 01:29:19;;;;;;;10.68;6.35;;;19.40;41.30;;;;;;4899376;29;20032;-54
2021/11/11 01:31:45;;;;;;;10.57;6.53;;;19.40;41.30;;;;;;4899797;29;20071;-50
2021/11/11 01:34:11;;;;;;;9.77;6.15;;;19.40;41.30;;;;;;4899625;29;20071;-54
2021/11/11 01:36:36;;;;;;;11.48;6.38;;;19.40;41.20;;;;;;4899496;29;20056;-54
2021/11/11 01:39:04;;;;;;;12.52;6.32;;;19.40;41.30;;;;;;4899248;29;20035;-54
2021/11/11 01:41:30;;;;;;;10.48;6.15;;;19.40;41.20;;;;;;4899196;29;20076;-52
2021/11/11 01:43:55;;;;;;;11.98;6.47;;;19.40;41.20;;;;;;4899210;29;20441;-49
2021/11/11 01:46:21;;;;;;;9.68;5.80;;;19.40;41.20;;;;;;4899245;29;20040;-53
2021/11/11 01:48:46;;;;;;;12.20;6.15;;;19.30;41.10;;;;;;4899445;29;20024;-52
2021/11/11 01:51:13;;;;;;;11.02;6.07;;;19.40;41.10;;;;;;4899161;29;20094;-53
2021/11/11 01:53:39;;;;;;;10.52;6.18;;;19.40;41.10;;;;;;4899101;29;20029;-49
2021/11/11 01:56:05;;;;;;;9.77;5.55;;;19.40;41.10;;;;;;4899266;29;20043;-53
2021/11/11 01:58:31;;;;;;;9.55;5.78;;;19.30;41.20;;;;;;4898918;29;20088;-54
2021/11/11 02:00:59;;;;;;;10.30;6.15;;;19.40;41.20;;;;;;4899130;29;20036;-51
2021/11/11 02:03:25;;;;;;;8.95;5.43;;;19.40;41.10;;;;;;4898702;29;20057;-50
2021/11/11 02:05:51;;;;;;;10.27;5.95;;;19.30;41.00;;;;;;4899040;29;20164;-49
2021/11/11 02:08:18;;;;;;;9.93;5.65;;;19.40;41.00;;;;;;4897469;29;20480;-49
2021/11/11 02:10:44;;;;;;;10.82;6.45;;;19.30;41.10;;;;;;4898627;29;20035;-53
2021/11/11 02:13:10;;;;;;;10.93;6.22;;;19.30;41.00;;;;;;4898699;29;20488;-52
2021/11/11 02:15:37;;;;;;;9.85;5.75;;;19.30;41.00;;;;;;4898947;29;20100;-51
2021/11/11 02:18:05;;;;;;;11.95;6.28;;;19.30;41.10;;;;;;4898733;29;20115;-51
2021/11/11 02:20:35;;;;;;;11.23;6.40;;;19.30;41.00;;;;;;4898753;29;20127;-52
2021/11/11 02:23:03;;;;;;;10.40;6.00;;;19.30;41.00;;;;;;4898614;29;20033;-50
2021/11/11 02:25:29;;;;;;;9.98;5.90;;;19.30;40.90;;;;;;4898726;29;20033;-52
2021/11/11 02:28:00;;;;;;;11.70;6.18;;;19.30;41.00;;;;;;4898480;29;20183;-53
2021/11/11 02:30:28;;;;;;;12.35;6.82;;;19.30;41.00;;;;;;4898516;29;20036;-53
2021/11/11 02:32:54;;;;;;;11.43;5.75;;;19.30;40.90;;;;;;4898336;29;20426;-53
2021/11/11 02:35:21;;;;;;;11.38;6.38;;;19.30;40.90;;;;;;4898352;29;20029;-55
2021/11/11 02:37:47;;;;;;;10.55;6.15;;;19.30;40.80;;;;;;4898369;29;20028;-54
2021/11/11 02:40:26;;;;;;;11.38;5.75;;;19.30;40.80;;;;;;4898147;29;20045;-49
2021/11/11 02:42:52;;;;;;;10.60;5.68;;;19.30;40.80;;;;;;4898254;29;20565;-51
2021/11/11 02:45:21;;;;;;;10.93;6.13;;;19.30;40.80;;;;;;4898488;29;20119;-53
2021/11/11 02:47:48;;;;;;;11.20;5.97;;;19.30;40.80;;;;;;4898219;29;20534;-49
2021/11/11 02:50:14;;;;;;;12.32;6.60;;;19.30;40.90;;;;;;4898451;29;20116;-50
2021/11/11 02:52:42;;;;;;;11.32;5.75;;;19.30;40.90;;;;;;4898061;29;20065;-50
2021/11/11 02:55:08;;;;;;;11.38;5.80;;;19.20;40.90;;;;;;4898330;29;20084;-49
2021/11/11 02:57:36;;;;;;;9.82;5.50;;;19.30;40.80;;;;;;4898261;29;20119;-52
2021/11/11 03:00:10;;;;;;;9.93;5.18;;;19.30;40.70;;;;;;4898005;29;20080;-49
2021/11/11 03:02:38;;;;;;;10.43;5.65;;;19.30;40.70;;;;;;4897979;29;20048;-51
2021/11/11 03:05:07;;;;;;;10.85;5.65;;;19.20;40.70;;;;;;4898155;29;20025;-49
2021/11/11 03:07:33;;;;;;;10.40;5.30;;;19.20;40.70;;;;;;4898115;29;20032;-50
2021/11/11 03:09:59;;;;;;;10.60;5.65;;;19.30;40.70;;;;;;4897924;29;20033;-51
2021/11/11 03:12:24;;;;;;;8.82;5.15;;;19.30;40.80;;;;;;4898181;29;20028;-50
2021/11/11 03:14:52;;;;;;;9.55;5.40;;;19.20;40.70;;;;;;4898077;29;20021;-49
2021/11/11 03:17:18;;;;;;;10.35;5.47;;;19.20;40.70;;;;;;4897898;29;20028;-50
2021/11/11 03:19:44;;;;;;;11.00;6.20;;;19.20;40.80;;;;;;4897644;29;20047;-49
2021/11/11 03:22:16;;;;;;;10.52;5.57;;;19.20;40.70;;;;;;4897850;29;20021;-51
2021/11/11 03:24:41;;;;;;;8.57;4.90;;;19.20;40.70;;;;;;4898070;29;20479;-50
2021/11/11 03:27:09;;;;;;;10.05;5.57;;;19.30;40.60;;;;;;4898021;29;20044;-48
2021/11/11 03:29:35;;;;;;;9.40;5.57;;;19.20;40.70;;;;;;4897829;29;20115;-51
2021/11/11 03:32:00;;;;;;;8.88;5.40;;;19.20;40.60;;;;;;4898015;29;20032;-53
2021/11/11 03:34:26;;;;;;;8.95;4.93;;;19.20;40.60;;;;;;4897764;29;20029;-53
2021/11/11 03:36:53;;;;;;;12.93;5.97;;;19.20;40.60;;;;;;4897658;29;20024;-49
2021/11/11 03:39:21;;;;;;;12.05;5.82;;;19.20;40.50;;;;;;4897875;29;20123;-51
2021/11/11 03:41:48;;;;;;;10.13;6.00;;;19.20;40.50;;;;;;4898005;29;20029;-51
2021/11/11 03:44:18;;;;;;;12.13;5.35;;;19.20;40.50;;;;;;4901639;29;20032;-49
2021/11/11 03:46:46;;;;;;;10.48;6.03;;;19.20;40.50;;;;;;4901593;29;20029;-49
2021/11/11 03:49:11;;;;;;;10.85;5.18;;;19.20;40.40;;;;;;4901212;29;20032;-50
2021/11/11 03:51:37;;;;;;;10.15;5.22;;;19.20;40.50;;;;;;4901551;29;20028;-54
2021/11/11 03:54:05;;;;;;;8.73;5.22;;;19.20;40.40;;;;;;4901219;29;20512;-51
2021/11/11 03:56:31;;;;;;;9.48;5.57;;;19.20;40.30;;;;;;4901201;29;20477;-50
2021/11/11 03:58:57;;;;;;;10.60;5.28;;;19.20;40.40;;;;;;4899960;29;20044;-52
2021/11/11 04:01:23;;;;;;;8.25;4.70;;;19.20;40.50;;;;;;4901061;29;20052;-50
2021/11/11 04:03:48;;;;;;;9.80;5.03;;;19.20;40.40;;;;;;4900950;29;20096;-52
2021/11/11 04:06:14;;;;;;;11.80;5.93;;;19.20;40.40;;;;;;4901053;29;20104;-49
2021/11/11 04:08:39;;;;;;;9.93;5.80;;;19.20;40.40;;;;;;4901030;29;20041;-53
2021/11/11 04:11:05;;;;;;;10.75;5.72;;;19.20;40.40;;;;;;4901200;29;20036;-50
2021/11/11 04:13:31;;;;;;;9.38;5.30;;;19.20;40.30;;;;;;4901215;29;20040;-53
2021/11/11 04:15:56;;;;;;;8.73;5.15;;;19.10;40.40;;;;;;4901125;29;20054;-55
2021/11/11 04:18:22;;;;;;;9.85;4.75;;;19.10;40.30;;;;;;4900805;29;20093;-49
2021/11/11 04:20:48;;;;;;;9.20;5.32;;;19.10;40.40;;;;;;4900909;29;20044;-52
2021/11/11 04:23:14;;;;;;;9.93;5.30;;;19.10;40.30;;;;;;4901040;29;20052;-54
2021/11/11 04:28:30;;;;;;;9.15;4.90;;;19.10;40.30;;;;;;4900756;29;20036;-53
2021/11/11 04:30:59;;;;;;;8.77;5.13;;;19.10;40.30;;;;;;4900530;29;20536;-54
2021/11/11 04:33:25;;;;;;;10.95;5.30;;;19.20;40.30;;;;;;4900642;29;20017;-52
2021/11/11 04:35:56;;;;;;;12.23;5.80;;;19.10;40.30;;;;;;4900652;29;20032;-53
2021/11/11 04:41:12;;;;;;;8.30;5.07;;;19.10;40.20;;;;;;4900599;29;20048;-49
2021/11/11 04:43:48;;;;;;;10.20;4.90;;;19.10;40.20;;;;;;4900226;29;20065;-53
2021/11/11 05:05:22;;;;;;;9.23;5.40;;;19.10;40.20;;;;;;4900180;29;20036;-52
2021/11/11 05:07:48;;;;;;;9.15;5.10;;;19.10;40.20;;;;;;4899856;29;20552;-53
2021/11/11 05:10:14;;;;;;;10.10;5.13;;;19.10;40.20;;;;;;4899858;29;20087;-51
2021/11/11 05:12:40;;;;;;;9.80;4.97;;;19.00;40.10;;;;;;4899870;29;20021;-54
2021/11/11 05:15:06;;;;;;;9.95;5.07;;;19.10;40.20;;;;;;4899978;29;20032;-52
2021/11/11 05:17:32;;;;;;;10.55;5.05;;;19.10;40.00;;;;;;4899749;29;20028;-52
2021/11/11 05:19:57;;;;;;;8.55;4.35;;;19.10;40.10;;;;;;4899880;29;20370;-52
2021/11/11 05:22:23;;;;;;;9.68;5.70;;;19.10;40.10;;;;;;4899633;29;20025;-52
2021/11/11 05:24:49;;;;;;;9.18;5.55;;;19.10;40.00;;;;;;4899637;29;20503;-51
2021/11/11 05:27:15;;;;;;;8.77;4.85;;;19.20;39.90;;;;;;4899513;29;20039;-50
2021/11/11 05:29:41;;;;;;;9.57;5.10;;;19.20;39.90;;;;;;4899609;29;20084;-51
2021/11/11 05:32:08;;;;;;;8.40;5.00;;;19.20;39.90;;;;;;4898432;29;20025;-53
2021/11/11 05:34:33;;;;;;;8.68;4.97;;;19.20;39.80;;;;;;4899732;29;20025;-52
2021/11/11 05:36:59;;;;;;;7.93;4.18;;;19.20;39.80;;;;;;4899410;29;20108;-52
2021/11/11 05:39:24;;;;;;;10.07;5.28;;;19.30;39.70;;;;;;4899270;29;20108;-50
2021/11/11 05:41:50;;;;;;;9.18;5.28;;;19.30;39.70;;;;;;4899348;29;20029;-54
2021/11/11 05:44:15;;;;;;;9.45;5.05;;;19.30;39.60;;;;;;4899237;29;20025;-54
2021/11/11 05:46:41;;;;;;;8.45;4.93;;;19.40;39.60;;;;;;4899275;29;20033;-50
2021/11/11 05:49:07;;;;;;;10.93;5.35;;;19.30;39.60;;;;;;4899402;29;20115;-52
2021/11/11 05:51:33;;;;;;;8.43;4.93;;;19.40;39.60;;;;;;4899367;29;20119;-54
2021/11/11 05:53:58;;;;;;;9.95;4.95;;;19.40;39.50;;;;;;4899364;29;20160;-53
2021/11/11 05:56:24;;;;;;;8.52;4.95;;;19.40;39.60;;;;;;4899005;29;20024;-53
2021/11/11 05:58:49;;;;;;;11.77;4.93;;;19.40;39.60;;;;;;4899049;29;20060;-54
2021/11/11 06:01:15;;;;;;;9.48;4.72;;;19.40;39.50;;;;;;4899267;29;20025;-53
2021/11/11 06:03:41;;;;;;;9.00;4.97;;;19.50;39.60;;;;;;4898812;29;20056;-53
2021/11/11 06:06:06;;;;;;;9.40;4.68;;;19.40;39.60;;;;;;4898640;29;20511;-51
2021/11/11 06:08:32;;;;;;;8.35;4.50;;;19.50;39.50;;;;;;4899057;29;20029;-51
2021/11/11 06:10:57;;;;;;;10.45;5.05;;;19.50;39.50;;;;;;4899017;29;20056;-51
2021/11/11 06:13:24;;;;;;;7.70;4.63;;;19.50;39.50;;;;;;4898909;29;20036;-49
2021/11/11 06:15:51;;;;;;;9.05;4.90;;;19.50;39.40;;;;;;4898643;29;20029;-50
2021/11/11 06:18:18;;;;;;;10.50;5.10;;;19.50;39.50;;;;;;4898984;29;20036;-49
2021/11/11 06:20:50;;;;;;;8.45;4.57;;;19.50;39.40;;;;;;4898467;29;20507;-49
2021/11/11 06:23:16;;;;;;;10.63;5.25;;;19.50;39.40;;;;;;4898746;29;20032;-49
2021/11/11 06:25:43;;;;;;;8.90;5.10;;;19.50;39.30;;;;;;4898534;29;20115;-54
2021/11/11 06:28:09;;;;;;;9.35;5.40;;;19.50;39.50;;;;;;4898392;29;20040;-49
2021/11/11 06:30:34;;;;;;;10.35;5.20;;;19.50;39.30;;;;;;4898443;29;20028;-48
2021/11/11 06:33:00;;;;;;;7.95;4.70;;;19.50;39.50;;;;;;4897307;29;20168;-49
2021/11/11 06:35:28;;;;;;;9.73;4.78;;;19.50;39.40;;;;;;4898375;29;20029;-51
2021/11/11 06:37:54;;;;;;;8.68;5.00;;;19.50;39.30;;;;;;4898471;29;20032;-54
2021/11/11 06:40:19;;;;;;;7.63;4.50;;;19.50;39.40;;;;;;4898267;29;20410;-53
2021/11/11 06:42:45;;;;;;;9.13;4.95;;;19.60;39.40;;;;;;4897054;29;20024;-53
2021/11/11 06:45:11;;;;;;;10.32;4.60;;;19.50;39.30;;;;;;4896946;29;20078;-54
2021/11/11 06:47:38;;;;;;;9.15;4.80;;;19.60;39.30;;;;;;4898134;29;20029;-54
2021/11/11 06:50:05;;;;;;;9.05;4.72;;;19.60;39.30;;;;;;4898072;29;20028;-53
2021/11/11 06:52:30;;;;;;;10.40;4.57;;;19.60;39.30;;;;;;4898246;29;20025;-54
2021/11/11 06:54:56;;;;;;;9.30;4.60;;;19.60;39.30;;;;;;4898207;29;20028;-50
2021/11/11 06:57:21;;;;;;;9.35;4.57;;;19.60;39.30;;;;;;4898334;29;20031;-49
2021/11/11 06:59:48;;;;;;;9.15;5.05;;;19.60;39.20;;;;;;4898205;29;20437;-51
2021/11/11 07:02:14;;;;;;;10.02;5.22;;;19.60;39.30;;;;;;4897844;29;20049;-50
2021/11/11 07:04:39;;;;;;;8.70;4.70;;;19.60;39.20;;;;;;4897928;29;20062;-50
2021/11/11 07:07:05;;;;;;;8.02;4.60;;;19.60;39.20;;;;;;4897833;29;20032;-53
2021/11/11 07:09:30;;;;;;;9.38;4.85;;;19.60;39.30;;;;;;4898013;29;20195;-55
2021/11/11 07:11:56;;;;;;;9.18;4.88;;;19.60;39.20;;;;;;4898003;29;20473;-49
2021/11/11 07:14:22;;;;;;;12.02;4.80;;;19.60;39.20;;;;;;4897899;29;20101;-49
2021/11/11 07:16:47;;;;;;;8.48;4.60;;;19.60;39.20;;;;;;4897262;29;20032;-49
2021/11/11 07:19:14;;;;;;;8.98;4.78;;;19.60;39.20;;;;;;4897840;29;20041;-52
2021/11/11 07:21:39;;;;;;;8.75;4.60;;;19.60;39.30;;;;;;4897795;29;20465;-51
2021/11/11 07:24:05;;;;;;;8.77;4.40;;;19.70;39.30;;;;;;4897972;29;20047;-50
2021/11/11 07:26:31;;;;;;;9.15;5.25;;;19.70;39.30;;;;;;4897837;29;20043;-50
2021/11/11 07:28:57;;;;;;;8.20;4.28;;;19.60;39.30;;;;;;4897880;29;20025;-53
2021/11/11 07:31:25;;;;;;;8.68;4.32;;;19.70;39.30;;;;;;4897563;29;20025;-50
2021/11/11 07:33:50;;;;;;;8.63;4.47;;;19.70;39.30;;;;;;4896516;29;20388;-52
2021/11/11 07:36:16;;;;;;;9.57;5.07;;;19.70;39.20;;;;;;4897698;29;20115;-51
2021/11/11 07:38:42;;;;;;;7.82;4.82;;;19.70;39.30;;;;;;4897796;29;20032;-50
2021/11/11 07:41:08;;;;;;;9.05;5.05;;;19.70;39.20;;;;;;4897614;29;20056;-49
2021/11/11 07:43:34;;;;;;;9.23;4.80;;;19.70;39.20;;;;;;4897916;29;20040;-51
2021/11/11 07:46:04;;;;;;;9.07;4.80;;;19.70;39.20;;;;;;4897537;29;20032;-50
2021/11/11 07:48:30;;;;;;;9.50;5.05;;;19.70;39.20;;;;;;4907451;29;20087;-53
2021/11/11 07:50:57;;;;;;;9.35;5.15;;;19.70;39.20;;;;;;4925657;29;20477;-50
2021/11/11 07:53:23;;;;;;;8.25;4.68;;;19.70;39.20;;;;;;4916290;29;20024;-52
2021/11/11 07:55:48;;;;;;;9.57;4.93;;;19.70;39.10;;;;;;4916447;29;20081;-53
2021/11/11 07:58:14;;;;;;;10.15;4.82;;;19.70;39.20;;;;;;4916529;29;20032;-51
2021/11/11 08:00:41;;;;;;;10.25;4.63;;;19.70;39.20;;;;;;4915430;29;20072;-49
2021/11/11 08:03:07;;;;;;;8.10;4.38;;;19.80;39.30;;;;;;4915577;29;20508;-48
2021/11/11 08:05:33;;;;;;;8.60;4.63;;;19.70;39.20;;;;;;4911918;29;20039;-49
2021/11/11 08:07:59;;;;;;;7.28;4.32;;;19.80;39.50;;;;;;4913608;29;20028;-55
2021/11/11 08:10:25;;;;;;;9.13;4.95;;;19.70;39.60;;;;;;4914091;29;20032;-50
2021/11/11 08:12:51;;;;;;;9.10;4.88;;;19.80;39.40;;;;;;4914669;29;20146;-53
2021/11/11 08:15:18;;;;;;;10.30;4.32;;;19.80;39.20;;;;;;4914683;29;20020;-51
2021/11/11 08:17:45;;;;;;;10.32;5.30;;;19.80;39.50;;;;;;4912673;29;20033;-49
2021/11/11 08:20:13;;;;;;;8.20;4.38;;;19.80;39.40;;;;;;4915111;29;20052;-50
2021/11/11 08:22:40;;;;;;;11.05;5.60;;;19.80;39.40;;;;;;4913746;29;20029;-50
2021/11/11 08:25:07;;;;;;;10.30;5.40;;;19.80;39.50;;;;;;4914856;29;20175;-50
2021/11/11 08:27:34;;;;;;;10.50;4.80;;;19.80;39.50;;;;;;4912929;29;20036;-48
2021/11/11 08:30:00;;;;;;;8.85;5.00;;;19.80;39.50;;;;;;4918962;29;20114;-48
2021/11/11 08:32:25;;;;;;;10.40;5.07;;;19.80;39.60;;;;;;4918926;29;20107;-50
2021/11/11 08:34:51;;;;;;;8.60;4.20;;;19.90;39.70;;;;;;4915653;29;20040;-52
2021/11/11 08:37:19;;;;;;;8.77;4.60;;;19.90;39.60;;;;;;4915799;29;20468;-55
2021/11/11 08:39:45;;;;;;;8.73;4.82;;;19.90;39.60;;;;;;4906059;29;20490;-51
2021/11/11 08:42:12;;;;;;;9.65;4.80;;;19.90;39.60;;;;;;4917531;29;20031;-50
2021/11/11 08:44:44;;;;;;;8.05;4.47;;;19.90;39.60;;;;;;4916837;29;20119;-49
2021/11/11 08:47:19;;;;;;;8.85;4.57;;;19.90;39.80;;;;;;4916814;29;20031;-52
2021/11/11 08:49:47;;;;;;;8.45;4.43;;;19.90;39.80;;;;;;4915934;29;20507;-49
2021/11/11 08:52:15;;;;;;;11.27;4.35;;;19.90;39.70;;;;;;4917820;29;20059;-49
2021/11/11 08:54:41;;;;;;;9.15;4.75;;;20.00;39.60;;;;;;4917803;29;20119;-52
2021/11/11 08:57:07;;;;;;;9.32;4.95;;;19.90;39.80;;;;;;4917346;29;20560;-52
2021/11/11 08:59:34;;;;;;;8.27;4.55;;;20.00;39.70;;;;;;4917144;29;20042;-50
2021/11/11 09:02:00;;;;;;;9.98;4.15;;;20.00;39.70;;;;;;4915709;29;20404;-52
2021/11/11 09:04:25;;;;;;;10.35;4.30;;;19.90;39.80;;;;;;4917641;29;20028;-52
2021/11/11 09:06:51;;;;;;;9.90;4.63;;;20.00;39.80;;;;;;4917398;29;20043;-50
2021/11/11 09:09:19;;;;;;;9.95;4.30;;;20.00;39.70;;;;;;4914983;29;20032;-51
2021/11/11 09:11:45;;;;;;;8.52;4.30;;;19.90;39.90;;;;;;4914662;29;20024;-50
2021/11/11 09:14:12;;;;;;;8.40;4.43;;;19.90;39.90;;;;;;4916184;29;20044;-53
2021/11/11 09:16:38;;;;;;;10.10;4.43;;;20.00;39.90;;;;;;4916790;29;20028;-51
2021/11/11 09:19:05;;;;;;;8.20;3.97;;;20.00;39.90;;;;;;4916580;29;20064;-54
2021/11/11 09:21:31;;;;;;;7.63;4.20;;;20.00;40.00;;;;;;4916911;29;20042;-49
2021/11/11 09:23:57;;;;;;;8.57;4.70;;;20.00;39.90;;;;;;4908781;29;20036;-53
2021/11/11 09:26:23;;;;;;;8.77;4.25;;;20.00;39.90;;;;;;4915474;29;20031;-51
2021/11/11 09:28:48;;;;;;;7.30;3.97;;;20.00;39.90;;;;;;4917079;29;20071;-48
2021/11/11 09:31:15;;;;;;;8.13;4.68;;;20.00;39.80;;;;;;4916178;29;20127;-49
2021/11/11 09:33:43;;;;;;;8.23;4.07;;;20.00;39.80;;;;;;4917943;29;20120;-53
2021/11/11 09:36:11;;;;;;;9.10;4.82;;;20.10;39.90;;;;;;4916852;29;20035;-54
2021/11/11 09:38:37;;;;;;;8.48;4.43;;;20.10;39.90;;;;;;4917539;29;20033;-54
2021/11/11 09:41:02;;;;;;;8.50;4.65;;;20.10;39.90;;;;;;4906460;29;20037;-52
2021/11/11 09:43:28;;;;;;;8.52;4.45;;;20.00;39.90;;;;;;4917826;29;20028;-50
2021/11/11 09:45:54;;;;;;;10.65;4.85;;;20.10;39.90;;;;;;4916848;29;20398;-52
2021/11/11 09:48:19;;;;;;;8.80;4.30;;;20.10;40.00;;;;;;4916820;29;20087;-48
2021/11/11 09:50:46;;;;;;;9.95;4.35;;;20.10;40.10;;;;;;4915325;29;20468;-55
2021/11/11 09:53:16;;;;;;;7.78;3.90;;;20.10;40.00;;;;;;4916549;29;20040;-52
2021/11/11 09:58:44;;;;;;;;;;;20.10;40.00;;;;;;4917913;29;20047;-53
2021/11/11 10:01:18;;;;;;;12.50;4.65;;;20.20;40.00;;;;;;4915287;29;19919;-53
2021/11/11 10:03:48;;;;;;;9.57;4.30;;;20.20;39.90;;;;;;4911449;29;20052;-51
2021/11/11 10:06:17;;;;;;;11.48;4.07;;;20.20;39.90;;;;;;4911792;29;20040;-51
2021/11/11 10:08:48;;;;;;;11.57;3.92;;;20.20;40.00;;;;;;4916447;29;20032;-51
2021/11/11 10:11:32;;;;;;;10.05;4.50;;;20.20;40.00;;;;;;4914051;29;20039;-53
2021/11/11 10:14:07;;;;;;;6.65;3.80;;;20.20;40.00;;;;;;4915175;29;20055;-52
2021/11/11 10:16:40;;;;;;;10.07;4.00;;;20.20;40.00;;;;;;4907465;29;20028;-53
2021/11/11 10:19:06;;;;;;;9.18;4.18;;;20.20;40.10;;;;;;4917555;29;20062;-50
2021/11/11 10:21:42;;;;;;;9.15;3.88;;;20.10;40.20;;;;;;4916047;29;20092;-50
2021/11/11 10:24:19;;;;;;;8.15;3.92;;;20.10;40.20;;;;;;4914255;29;20060;-55
2021/11/11 10:27:12;;;;;;;8.32;3.90;;;20.10;40.30;;;;;;4915774;29;20020;-54
2021/11/11 10:29:49;;;;;;;8.48;4.20;;;20.00;40.40;;;;;;4916251;29;20090;-49
2021/11/11 10:32:27;;;;;;;8.95;4.20;;;20.00;40.30;;;;;;4916168;29;20032;-51
2021/11/11 10:34:57;;;;;;;9.25;3.90;;;20.00;40.40;;;;;;4916443;29;20024;-50
2021/11/11 10:37:28;;;;;;;8.07;4.30;;;20.00;40.40;;;;;;4922155;29;20039;-51
2021/11/11 10:40:06;;;;;;;9.43;4.00;;;20.00;40.40;;;;;;4912405;29;20040;-51
2021/11/11 10:42:35;;;;;;;7.40;4.05;;;20.00;40.40;;;;;;4908973;29;20051;-50
2021/11/11 10:45:05;;;;;;;10.25;3.70;;;20.00;40.40;;;;;;4916080;29;20095;-49
2021/11/11 10:47:32;;;;;;;8.27;3.92;;;20.00;40.50;;;;;;4914912;29;20028;-51
2021/11/11 10:50:00;;;;;;;8.13;3.92;;;20.00;40.50;;;;;;4915980;29;20070;-50
2021/11/11 10:52:38;;;;;;;9.35;4.45;;;20.00;40.50;;;;;;4915019;29;20034;-51
2021/11/11 10:55:42;;;;;;;8.05;4.03;;;20.00;40.60;;;;;;4915028;29;20460;-50
2021/11/11 10:58:12;;;;;;;9.18;4.32;;;20.00;40.60;;;;;;4908898;29;20209;-48
2021/11/11 11:00:53;;;;;;;8.38;4.22;;;20.00;40.60;;;;;;4900923;29;20044;-51
2021/11/11 11:03:31;;;;;;;7.65;4.07;;;20.00;40.60;;;;;;4915235;29;20138;-49
2021/11/11 11:06:00;;;;;;;7.80;3.67;;;20.00;40.60;;;;;;4914133;29;20425;-53
2021/11/11 11:08:30;;;;;;;7.55;3.90;;;20.00;40.60;;;;;;4914916;29;20028;-53
2021/11/11 11:11:18;;;;;;;9.50;4.40;;;20.00;40.60;;;;;;4912324;29;20068;-49
2021/11/11 11:13:53;;;;;;;8.25;3.97;;;20.00;40.60;;;;;;4916089;29;20115;-50
2021/11/11 11:16:22;;;;;;;8.27;4.53;;;20.00;40.70;;;;;;4915856;29;20046;-51
2021/11/11 11:19:00;;;;;;;11.90;4.97;;;20.00;40.70;;;;;;4915173;29;20115;-50
2021/11/11 11:21:28;;;;;;;8.90;3.97;;;20.00;40.60;;;;;;4915776;29;20040;-53
2021/11/11 11:23:59;;;;;;;8.20;4.38;;;20.00;40.60;;;;;;4915354;29;20111;-54
2021/11/11 11:26:26;;;;;;;7.80;3.83;;;20.00;40.70;;;;;;4915425;29;20032;-50
2021/11/11 11:29:18;;;;;;;7.13;3.42;;;20.00;40.70;;;;;;4914462;29;20390;-51
2021/11/11 11:34:38;;;;;;;9.15;4.05;;;20.10;40.70;;;;;;4910989;29;20060;-49
2021/11/11 11:37:10;;;;;;;7.72;3.90;;;20.10;40.70;;;;;;4915368;29;20028;-49
2021/11/11 11:39:44;;;;;;;7.95;3.67;;;20.10;40.70;;;;;;4913250;29;20036;-50
2021/11/11 11:42:25;;;;;;;8.95;3.70;;;20.10;40.70;;;;;;4915439;29;20043;-51
2021/11/11 11:44:53;;;;;;;10.07;3.85;;;20.10;40.70;;;;;;4915411;29;20066;-50
2021/11/11 11:47:38;;;;;;;8.25;4.07;;;20.10;40.70;;;;;;4907524;29;20073;-49
2021/11/11 11:50:06;;;;;;;;;;;20.10;40.80;;;;;;4915084;29;20440;-52
2021/11/11 11:52:34;;;;;;;9.77;4.22;;;20.10;40.80;;;;;;4914999;29;20414;-50
2021/11/11 11:55:07;;;;;;;10.48;3.90;;;20.10;40.80;;;;;;4914251;29;20032;-52
2021/11/11 11:57:49;;;;;;;8.65;4.22;;;20.10;40.90;;;;;;4913755;29;20036;-51
2021/11/11 12:05:37;;;;;;;8.35;3.72;;;20.10;40.90;;;;;;4918688;29;20036;-52
2021/11/11 12:10:40;;;;;;;8.10;4.20;;;20.00;40.90;;;;;;4917043;29;20146;-53
2021/11/11 12:28:31;;;;;;;6.88;3.67;;;20.00;41.00;;;;;;4918923;29;20028;-52
2021/11/11 12:34:10;;;;;;;7.15;3.83;;;20.00;41.10;;;;;;4913386;29;20374;-55
2021/11/11 12:38:50;;;;;;;9.70;3.95;;;20.00;41.20;;;;;;4918441;29;20083;-51
2021/11/11 12:41:19;;;;;;;8.02;3.55;;;20.00;41.20;;;;;;4916551;29;20055;-49
2021/11/11 12:44:11;;;;;;;8.20;3.65;;;20.00;41.30;;;;;;4916959;29;20539;-53
2021/11/11 12:46:46;;;;;;;6.68;3.65;;;20.00;41.30;;;;;;4917604;29;20073;-54
2021/11/11 12:49:26;;;;;;;7.40;3.67;;;20.00;41.20;;;;;;4917312;29;20034;-53
2021/11/11 12:52:18;;;;;;;7.82;3.78;;;20.00;41.30;;;;;;4918099;29;20095;-52
2021/11/11 12:54:44;;;;;;;8.77;3.72;;;20.00;41.30;;;;;;4908277;29;20099;-49
2021/11/11 12:57:11;;;;;;;7.22;3.65;;;20.00;41.30;;;;;;4910026;29;20032;-50
2021/11/11 12:59:37;;;;;;;8.63;3.70;;;20.00;41.30;;;;;;4911078;29;20087;-51
2021/11/11 13:02:05;;;;;;;8.98;3.92;;;20.00;41.30;;;;;;4916337;29;20048;-48
2021/11/11 13:04:56;;;;;;;7.35;3.35;;;20.00;41.30;;;;;;4916502;29;20032;-49
2021/11/11 13:07:26;;;;;;;7.43;3.40;;;20.00;41.40;;;;;;4917363;29;20036;-51
2021/11/11 13:10:04;;;;;;;7.13;2.92;;;20.00;41.40;;;;;;4916357;29;20028;-50
2021/11/11 13:12:30;;;;;;;6.85;3.30;;;20.00;41.40;;;;;;4917564;29;20040;-50
2021/11/11 13:15:16;;;;;;;10.00;3.63;;;20.00;41.50;;;;;;4915489;29;20168;-54
2021/11/11 13:17:45;;;;;;;9.00;3.53;;;20.10;41.50;;;;;;4917001;29;20039;-50
2021/11/11 13:20:31;;;;;;;8.40;3.38;;;20.00;41.50;;;;;;4917042;29;20032;-49
2021/11/11 13:23:04;;;;;;;6.53;3.60;;;20.10;41.40;;;;;;4917276;29;20032;-49
2021/11/11 16:20:49;;;;;;;7.43;3.60;;;20.20;42.50;;;;;;4919478;29;20131;-49
2021/11/11 16:26:16;;;;;;;6.80;3.42;;;20.10;42.50;;;;;;4901973;29;20151;-54
2021/11/11 16:28:46;;;;;;;;;;;20.10;42.40;;;;;;4918198;29;20016;-54
2021/11/11 16:31:14;;;;;;;8.27;3.60;;;20.10;42.40;;;;;;4917618;29;19911;-53
2021/11/11 16:33:41;;;;;;;8.90;3.55;;;20.10;42.50;;;;;;4918743;29;20025;-48
2021/11/11 16:36:06;;;;;;;8.55;3.92;;;20.10;42.50;;;;;;4918815;29;20025;-52
2021/11/11 16:38:34;;;;;;;7.60;4.00;;;20.10;42.50;;;;;;4919360;29;20020;-49
2021/11/11 16:40:59;;;;;;;7.88;3.72;;;20.10;42.50;;;;;;4918914;29;20433;-48
2021/11/11 16:43:25;;;;;;;7.93;3.97;;;20.10;42.50;;;;;;4919229;29;20032;-52
2021/11/11 16:45:51;;;;;;;8.45;3.70;;;20.10;42.50;;;;;;4919520;29;20084;-54